Terminal Aerodrome Forecast
Issued by NWS

Home | Current Version | Previous Version | Text Only | Print | Product List | Glossary On
Versions: 1 2 3 4 5 6 7 8 9 10 11 12 13 14 15
000
FTUS41 KBTV 280523
TAFMPV
TAF
KMPV 280523Z 2806/2906 34010KT 5SM -SHSN BR SCT025 BKN040 OVC060
      TEMPO 2806/2808 2SM -SN BR BKN025
     FM280800 33009KT P6SM SCT020 BKN045 OVC080
      TEMPO 2808/2812 OVC020
     FM281400 34009KT P6SM SCT045 OVC080
     FM281700 34008G16KT P6SM FEW090 SCT120
     FM282300 33004KT P6SM SKC=

USA.gov is the U.S. government's official web portal to all federal, state and local government web resources and services.